Time;durP1;ratioP1;P1;durP2;ratioP2;P2;SDS_P1;SDS_P2;PMS_P1;PMS_P2;Temp;Humidity;BMP_temperature;BMP_pressure;BME280_temperature;BME280_humidity;BME280_pressure;Samples;Min_cycle;Max_cycle;Signal;HPM_P1;HPM_P2
2021/10/12 00:01:55;;;;;;;10.13;8.77;;;9.90;1.00;;;;;;5092586;28;20224;-82
2021/10/12 00:04:22;;;;;;;8.57;7.50;;;9.90;1.00;;;;;;5092559;28;20209;-82
2021/10/12 00:06:49;;;;;;;9.90;8.17;;;10.00;1.00;;;;;;5091720;28;20213;-84
2021/10/12 00:09:17;;;;;;;11.63;8.67;;;9.90;1.00;;;;;;5077701;28;20209;-82
2021/10/12 00:11:44;;;;;;;8.37;7.50;;;9.90;1.00;;;;;;5091897;28;20691;-84
2021/10/12 00:14:11;;;;;;;9.07;7.60;;;10.00;1.00;;;;;;5088219;28;20218;-85
2021/10/12 00:16:38;;;;;;;9.63;7.50;;;9.90;1.00;;;;;;5081731;28;20206;-81
2021/10/12 00:19:05;;;;;;;11.27;8.83;;;9.90;1.00;;;;;;5077548;28;20581;-84
2021/10/12 00:21:32;;;;;;;9.70;8.33;;;10.00;1.00;;;;;;5090529;28;20229;-81
2021/10/12 00:24:00;;;;;;;10.50;8.03;;;10.00;1.00;;;;;;5091622;28;20205;-79
2021/10/12 00:26:28;;;;;;;10.13;8.03;;;9.90;1.00;;;;;;5091966;28;20208;-81
2021/10/12 00:28:55;;;;;;;12.37;8.00;;;9.90;1.00;;;;;;5092032;28;20202;-80
2021/10/12 00:31:22;;;;;;;10.10;8.10;;;9.80;1.00;;;;;;5091607;28;20209;-79
2021/10/12 00:33:49;;;;;;;10.00;7.40;;;9.80;1.00;;;;;;5091492;28;20209;-81
2021/10/12 00:36:17;;;;;;;8.80;7.67;;;9.90;1.00;;;;;;5090957;28;20209;-81
2021/10/12 00:38:44;;;;;;;11.67;8.60;;;9.90;1.00;;;;;;5091108;28;20213;-81
2021/10/12 00:41:11;;;;;;;12.13;8.87;;;10.00;1.00;;;;;;5074133;28;20237;-81
2021/10/12 00:43:39;;;;;;;9.73;8.10;;;10.00;1.00;;;;;;5071144;28;20210;-81
2021/10/12 00:46:07;;;;;;;10.87;8.03;;;9.90;1.00;;;;;;5070830;28;20218;-81
2021/10/12 00:48:34;;;;;;;11.53;8.27;;;9.80;1.00;;;;;;5070665;28;20241;-81
2021/10/12 00:51:01;;;;;;;9.43;8.10;;;9.80;1.00;;;;;;5070788;28;20210;-81
2021/10/12 00:53:29;;;;;;;8.67;7.73;;;9.80;1.00;;;;;;5071287;28;20217;-81
2021/10/12 00:55:57;;;;;;;9.30;8.00;;;9.80;1.00;;;;;;5071298;28;20665;-81
2021/10/12 00:58:24;;;;;;;9.40;8.00;;;9.80;1.00;;;;;;5071348;28;20211;-80
2021/10/12 01:00:53;;;;;;;12.60;7.43;;;9.90;1.00;;;;;;5070330;28;20606;-75
2021/10/12 01:03:20;;;;;;;10.23;7.70;;;9.80;1.00;;;;;;5070992;28;20210;-82
2021/10/12 01:05:47;;;;;;;8.90;7.27;;;9.60;1.00;;;;;;5070405;28;20202;-82
2021/10/12 01:08:14;;;;;;;9.70;7.57;;;9.70;1.00;;;;;;5070779;28;20206;-81
2021/10/12 01:10:42;;;;;;;8.83;7.47;;;9.70;1.00;;;;;;5070435;28;20213;-81
2021/10/12 01:13:09;;;;;;;10.93;8.57;;;9.70;1.00;;;;;;5070628;28;20693;-81
2021/10/12 01:15:36;;;;;;;12.40;7.67;;;9.70;1.00;;;;;;5070557;28;20283;-82
2021/10/12 01:18:11;;;;;;;10.17;8.53;;;9.70;1.00;;;;;;5070407;28;20589;-82
2021/10/12 01:20:39;;;;;;;8.97;6.83;;;9.80;1.00;;;;;;5069861;28;20264;-82
2021/10/12 01:23:08;;;;;;;10.13;7.43;;;9.60;1.00;;;;;;5070647;28;20206;-81
2021/10/12 01:25:35;;;;;;;9.43;7.33;;;9.50;1.00;;;;;;5070616;28;20207;-81
2021/10/12 01:28:03;;;;;;;11.90;7.20;;;9.50;1.00;;;;;;5070280;28;20199;-82
2021/10/12 01:30:30;;;;;;;10.70;7.97;;;9.60;1.00;;;;;;5070208;28;20675;-81
2021/10/12 01:32:57;;;;;;;7.80;6.33;;;9.60;1.00;;;;;;5070430;28;20206;-81
2021/10/12 01:35:24;;;;;;;7.97;7.17;;;9.60;1.00;;;;;;5070393;28;20205;-80
2021/10/12 01:37:51;;;;;;;8.50;6.63;;;9.60;1.00;;;;;;5069872;28;20607;-78
2021/10/12 01:40:20;;;;;;;8.97;8.03;;;9.60;1.00;;;;;;5070750;28;20241;-81
2021/10/12 01:42:47;;;;;;;10.80;8.20;;;9.60;1.00;;;;;;5070417;28;20214;-81
2021/10/12 01:45:15;;;;;;;10.80;8.30;;;9.60;1.00;;;;;;5070561;28;20210;-78
2021/10/12 01:47:43;;;;;;;11.07;8.60;;;9.60;1.00;;;;;;5070039;28;20206;-81
2021/10/12 01:50:12;;;;;;;10.47;9.23;;;9.50;1.00;;;;;;5069964;28;20210;-81
2021/10/12 01:52:40;;;;;;;10.03;7.17;;;9.50;1.00;;;;;;5070320;28;20217;-81
2021/10/12 01:55:08;;;;;;;11.27;7.80;;;9.40;1.00;;;;;;5070346;28;20217;-80
2021/10/12 01:57:37;;;;;;;11.73;8.00;;;9.30;1.00;;;;;;5070132;28;20206;-78
2021/10/12 02:00:06;;;;;;;8.63;6.47;;;9.40;1.00;;;;;;5070515;28;20240;-80
2021/10/12 02:02:34;;;;;;;8.70;7.50;;;9.40;1.00;;;;;;5056400;28;20202;-79
2021/10/12 02:05:01;;;;;;;8.17;6.80;;;9.40;1.00;;;;;;5070314;28;20214;-80
2021/10/12 02:07:28;;;;;;;9.43;7.43;;;9.40;1.00;;;;;;5070324;28;20202;-79
2021/10/12 02:09:55;;;;;;;8.37;7.37;;;9.30;1.00;;;;;;5070403;28;20216;-81
2021/10/12 02:12:23;;;;;;;9.00;6.43;;;9.30;1.00;;;;;;5069784;28;20680;-78
2021/10/12 02:14:52;;;;;;;7.93;6.43;;;9.10;1.00;;;;;;5069743;28;20214;-80
2021/10/12 02:17:19;;;;;;;9.63;7.90;;;9.20;1.00;;;;;;5069662;28;20211;-80
2021/10/12 02:19:46;;;;;;;9.53;7.07;;;9.20;1.00;;;;;;5070133;28;20214;-81
2021/10/12 02:22:14;;;;;;;8.70;6.60;;;9.20;1.00;;;;;;5069839;28;20230;-81
2021/10/12 02:24:41;;;;;;;7.37;6.37;;;9.20;1.00;;;;;;5069835;28;20213;-80
2021/10/12 02:27:08;;;;;;;8.07;7.27;;;9.20;1.00;;;;;;5069986;28;20225;-80
2021/10/12 02:29:35;;;;;;;9.40;6.73;;;9.10;1.00;;;;;;5069519;28;20210;-80
2021/10/12 02:32:04;;;;;;;8.23;7.13;;;9.10;1.00;;;;;;5070018;28;20237;-79
2021/10/12 02:34:31;;;;;;;8.47;6.67;;;9.00;1.00;;;;;;5069640;28;20623;-80
2021/10/12 02:36:58;;;;;;;11.40;7.53;;;9.00;1.00;;;;;;5070458;28;20228;-81
2021/10/12 02:39:25;;;;;;;8.80;7.93;;;9.00;1.00;;;;;;5070051;28;20206;-78
2021/10/12 02:41:52;;;;;;;8.83;6.57;;;9.00;1.00;;;;;;5069366;28;20234;-79
2021/10/12 02:44:19;;;;;;;7.97;6.70;;;9.00;1.00;;;;;;5069826;28;20213;-80
2021/10/12 02:46:46;;;;;;;7.50;6.40;;;8.90;1.00;;;;;;5073301;28;20218;-81
2021/10/12 02:49:14;;;;;;;9.23;8.07;;;8.80;1.00;;;;;;5073414;28;20202;-79
2021/10/12 02:51:41;;;;;;;9.07;6.70;;;8.80;1.00;;;;;;5072925;28;20678;-80
2021/10/12 02:54:08;;;;;;;8.37;7.57;;;8.90;1.00;;;;;;5073213;28;20630;-80
2021/10/12 02:56:35;;;;;;;7.73;6.87;;;9.00;1.00;;;;;;5072915;28;20666;-79
2021/10/12 02:59:03;;;;;;;12.23;7.60;;;9.00;1.00;;;;;;5073182;28;20203;-77
2021/10/12 03:01:30;;;;;;;7.70;6.77;;;9.00;1.00;;;;;;5072531;28;20230;-78
2021/10/12 03:03:57;;;;;;;9.07;6.70;;;8.90;1.00;;;;;;5073389;28;20267;-79
2021/10/12 03:06:25;;;;;;;9.57;7.77;;;8.90;1.00;;;;;;5073554;28;20229;-78
2021/10/12 03:08:52;;;;;;;9.20;7.03;;;8.90;1.00;;;;;;5072651;28;20206;-78
2021/10/12 03:11:19;;;;;;;8.53;6.97;;;8.90;1.00;;;;;;5073310;28;20210;-77
2021/10/12 03:13:46;;;;;;;8.83;6.67;;;8.80;1.00;;;;;;5072675;28;20210;-79
2021/10/12 03:16:13;;;;;;;8.27;6.77;;;8.70;1.00;;;;;;5072990;28;20202;-77
2021/10/12 03:18:40;;;;;;;9.60;6.87;;;8.70;1.00;;;;;;5072827;28;20214;-79
2021/10/12 03:21:07;;;;;;;8.70;6.80;;;8.50;1.00;;;;;;5072621;28;20222;-78
2021/10/12 03:23:36;;;;;;;7.00;6.30;;;8.60;1.00;;;;;;5072440;28;20271;-77
2021/10/12 03:26:03;;;;;;;8.00;7.20;;;8.60;1.00;;;;;;5072801;28;20206;-77
2021/10/12 03:28:30;;;;;;;7.53;6.73;;;8.60;1.00;;;;;;5072760;28;20259;-76
2021/10/12 03:30:57;;;;;;;9.07;7.10;;;8.50;1.00;;;;;;5072858;28;20248;-79
2021/10/12 03:33:24;;;;;;;8.13;7.23;;;8.40;1.00;;;;;;5073337;28;20218;-80
2021/10/12 03:35:55;;;;;;;9.30;7.43;;;8.50;1.00;;;;;;5072185;28;20214;-79
2021/10/12 03:38:23;;;;;;;7.73;6.73;;;8.60;1.00;;;;;;5072512;28;20214;-77
2021/10/12 03:40:51;;;;;;;7.73;7.03;;;8.70;1.00;;;;;;5072348;28;20289;-77
2021/10/12 03:43:18;;;;;;;8.27;6.23;;;8.70;1.00;;;;;;5072593;28;20252;-80
2021/10/12 03:45:46;;;;;;;9.87;7.30;;;8.70;1.00;;;;;;5071718;28;20673;-79
2021/10/12 03:48:13;;;;;;;10.97;7.33;;;8.60;1.00;;;;;;5072114;28;20202;-79
2021/10/12 03:50:40;;;;;;;8.40;6.43;;;8.60;1.00;;;;;;5072106;28;20279;-81
2021/10/12 03:53:07;;;;;;;8.97;6.93;;;8.60;1.00;;;;;;5072630;28;20210;-79
2021/10/12 03:55:36;;;;;;;9.80;6.23;;;8.60;1.00;;;;;;5071804;28;20275;-80
2021/10/12 03:58:04;;;;;;;8.93;6.93;;;8.60;1.00;;;;;;5072474;28;20264;-80
2021/10/12 04:00:31;;;;;;;10.37;7.07;;;8.60;1.00;;;;;;5071250;28;20621;-79
2021/10/12 04:02:59;;;;;;;11.57;6.90;;;8.50;1.00;;;;;;5072337;28;20669;-80
2021/10/12 04:05:26;;;;;;;8.30;6.30;;;8.50;1.00;;;;;;5072063;28;20256;-79
2021/10/12 04:07:53;;;;;;;9.10;6.23;;;8.50;1.00;;;;;;5071929;28;20206;-81
2021/10/12 04:10:20;;;;;;;8.50;7.33;;;8.50;1.00;;;;;;5071941;28;20210;-80
2021/10/12 04:12:47;;;;;;;8.13;6.67;;;8.50;1.00;;;;;;5071808;28;20218;-80
2021/10/12 04:15:16;;;;;;;8.43;6.87;;;8.40;1.00;;;;;;5071557;28;20272;-79
2021/10/12 04:17:43;;;;;;;8.67;6.83;;;8.40;1.00;;;;;;5071008;28;20623;-79
2021/10/12 04:20:11;;;;;;;8.73;7.23;;;8.40;1.00;;;;;;5072192;28;20264;-79
2021/10/12 04:22:39;;;;;;;11.47;6.87;;;8.40;1.00;;;;;;5071010;28;20233;-80
2021/10/12 04:25:07;;;;;;;8.07;7.03;;;8.40;1.00;;;;;;5071653;28;20665;-80
2021/10/12 04:27:34;;;;;;;9.73;7.43;;;8.30;1.00;;;;;;5070880;28;20202;-79
2021/10/12 04:30:01;;;;;;;10.53;7.43;;;8.40;1.00;;;;;;5071700;28;20209;-81
2021/10/12 04:32:29;;;;;;;7.83;7.00;;;8.40;1.00;;;;;;5071562;28;20210;-78
2021/10/12 04:34:56;;;;;;;7.93;7.10;;;8.40;1.00;;;;;;5071941;28;20256;-77
2021/10/12 04:37:23;;;;;;;7.70;6.67;;;8.30;1.00;;;;;;5071599;28;20492;-83
2021/10/12 04:39:51;;;;;;;7.17;6.47;;;8.30;1.00;;;;;;5070838;28;20591;-78
2021/10/12 04:42:18;;;;;;;8.93;7.47;;;8.30;1.00;;;;;;5070834;28;20647;-81
2021/10/12 04:44:48;;;;;;;8.27;7.10;;;8.40;1.00;;;;;;5070723;28;20206;-79
2021/10/12 04:47:16;;;;;;;7.03;6.07;;;8.40;1.00;;;;;;5071080;28;20223;-81
2021/10/12 04:49:44;;;;;;;11.17;6.67;;;8.40;1.00;;;;;;5070812;28;20235;-76
2021/10/12 04:52:11;;;;;;;9.13;6.47;;;8.30;1.00;;;;;;5070663;28;20256;-78
2021/10/12 04:54:38;;;;;;;8.37;7.53;;;8.30;1.00;;;;;;5070542;28;20271;-80
2021/10/12 04:57:06;;;;;;;12.70;7.50;;;8.30;1.00;;;;;;5070562;28;20632;-77
2021/10/12 04:59:33;;;;;;;7.87;6.20;;;8.30;1.00;;;;;;5070322;28;20248;-80
2021/10/12 05:02:00;;;;;;;9.63;6.73;;;8.30;1.00;;;;;;5070589;28;20233;-77
2021/10/12 05:04:27;;;;;;;9.03;7.53;;;8.30;1.00;;;;;;5071302;28;20673;-77
2021/10/12 05:06:55;;;;;;;7.93;7.13;;;8.10;1.00;;;;;;5070763;28;20202;-76
2021/10/12 05:09:22;;;;;;;9.67;7.87;;;8.00;1.00;;;;;;5070607;28;20206;-77
2021/10/12 05:11:49;;;;;;;8.00;6.77;;;8.00;1.00;;;;;;5069960;28;20643;-81
2021/10/12 05:14:18;;;;;;;9.33;7.17;;;8.10;1.00;;;;;;5070666;28;20210;-77
2021/10/12 05:16:45;;;;;;;12.37;6.87;;;8.10;1.00;;;;;;5070658;28;20674;-78
2021/10/12 05:19:12;;;;;;;7.00;6.30;;;8.20;1.00;;;;;;5071061;28;20289;-79
2021/10/12 05:21:39;;;;;;;8.90;6.87;;;8.20;1.00;;;;;;5070532;28;20735;-80
2021/10/12 05:24:07;;;;;;;10.63;6.90;;;8.20;1.00;;;;;;5070593;28;20639;-80
2021/10/12 05:26:35;;;;;;;7.87;6.37;;;8.20;1.00;;;;;;5070045;28;20210;-80
2021/10/12 05:29:02;;;;;;;8.33;7.40;;;8.20;1.00;;;;;;5070687;28;20206;-80
2021/10/12 05:31:29;;;;;;;9.00;7.83;;;8.20;1.00;;;;;;5070474;28;20206;-80
2021/10/12 05:33:56;;;;;;;8.00;6.73;;;8.10;1.00;;;;;;5071055;28;20256;-79
2021/10/12 05:36:23;;;;;;;9.77;7.30;;;8.00;1.00;;;;;;5070092;28;20662;-79
2021/10/12 05:38:50;;;;;;;10.27;7.67;;;8.00;1.00;;;;;;5070349;28;20202;-79
2021/10/12 05:41:18;;;;;;;13.13;8.97;;;8.00;1.00;;;;;;5070059;28;20229;-81
2021/10/12 05:43:46;;;;;;;10.60;8.50;;;8.00;1.00;;;;;;5070430;28;20275;-78
2021/10/12 05:46:13;;;;;;;8.87;7.23;;;7.90;1.00;;;;;;5070231;28;20670;-76
2021/10/12 05:48:40;;;;;;;9.50;8.60;;;8.00;1.00;;;;;;5069992;28;20206;-77
2021/10/12 05:51:09;;;;;;;11.33;8.43;;;8.10;1.00;;;;;;5070359;28;20206;-76
2021/10/12 05:53:42;;;;;;;8.77;7.80;;;8.10;1.00;;;;;;5069755;28;20210;-79
2021/10/12 05:56:13;;;;;;;10.83;7.40;;;8.10;1.00;;;;;;5071385;28;20206;-77
2021/10/12 05:58:44;;;;;;;10.67;8.47;;;8.10;1.00;;;;;;5071034;28;20242;-81
2021/10/12 06:01:11;;;;;;;9.13;8.23;;;8.00;1.00;;;;;;5070292;28;20683;-83
2021/10/12 06:03:39;;;;;;;12.63;8.77;;;7.90;1.00;;;;;;5070379;28;20283;-83
2021/10/12 06:06:06;;;;;;;11.10;8.77;;;8.00;1.00;;;;;;5070595;28;20649;-84
2021/10/12 06:08:34;;;;;;;12.43;8.27;;;8.00;1.00;;;;;;5070515;28;20217;-77
2021/10/12 06:11:02;;;;;;;8.43;7.53;;;8.10;1.00;;;;;;5056863;28;20293;-80
2021/10/12 06:13:30;;;;;;;10.77;8.60;;;8.10;1.00;;;;;;5071839;28;20674;-81
2021/10/12 06:15:59;;;;;;;11.57;9.87;;;8.10;1.00;;;;;;5070849;28;20690;-80
2021/10/12 06:18:26;;;;;;;13.60;9.87;;;8.10;1.00;;;;;;5070900;28;20264;-79
2021/10/12 06:20:54;;;;;;;9.87;8.63;;;8.00;1.00;;;;;;5072974;28;20207;-80
2021/10/12 06:23:21;;;;;;;12.20;9.67;;;8.10;1.00;;;;;;5075668;28;20241;-79
2021/10/12 06:25:48;;;;;;;15.97;9.17;;;8.20;1.00;;;;;;5073197;28;20202;-83
2021/10/12 06:28:17;;;;;;;10.27;8.30;;;8.20;1.00;;;;;;5073810;28;20198;-76
2021/10/12 06:30:44;;;;;;;8.97;7.70;;;8.20;1.00;;;;;;5072914;28;20228;-77
2021/10/12 06:33:13;;;;;;;11.27;8.60;;;8.30;1.00;;;;;;5069402;28;20628;-79
2021/10/12 06:35:40;;;;;;;13.00;9.17;;;8.20;1.00;;;;;;5073312;28;20616;-83
2021/10/12 06:38:08;;;;;;;14.73;8.50;;;8.20;1.00;;;;;;5073303;28;20210;-83
2021/10/12 06:40:35;;;;;;;9.70;8.43;;;8.30;1.00;;;;;;5073468;28;20376;-76
2021/10/12 06:43:03;;;;;;;11.73;8.70;;;8.30;1.00;;;;;;5073538;28;20222;-82
2021/10/12 06:45:30;;;;;;;12.17;7.73;;;8.30;1.00;;;;;;5073206;28;20256;-74
2021/10/12 06:47:58;;;;;;;11.30;8.60;;;8.40;1.00;;;;;;5073399;28;20647;-83
2021/10/12 06:50:26;;;;;;;11.70;9.37;;;8.50;1.00;;;;;;5073714;28;20214;-75
2021/10/12 06:52:53;;;;;;;10.50;9.40;;;8.40;1.00;;;;;;5072506;28;20580;-76
2021/10/12 06:55:21;;;;;;;11.30;9.20;;;8.40;1.00;;;;;;5071848;28;20674;-79
2021/10/12 06:57:48;;;;;;;13.73;8.70;;;8.40;1.00;;;;;;5071912;28;20206;-80
2021/10/12 07:00:17;;;;;;;13.60;9.17;;;8.40;1.00;;;;;;5072414;28;20202;-76
2021/10/12 07:02:46;;;;;;;13.60;8.43;;;8.50;1.00;;;;;;5072941;28;20234;-76
2021/10/12 07:05:14;;;;;;;13.83;9.17;;;8.60;1.00;;;;;;5072618;28;20737;-77
2021/10/12 07:07:43;;;;;;;12.10;9.07;;;8.80;1.00;;;;;;5072311;28;20746;-78
2021/10/12 07:10:12;;;;;;;15.77;9.50;;;8.90;1.00;;;;;;5072311;28;20583;-77
2021/10/12 07:12:39;;;;;;;9.40;7.90;;;8.90;1.00;;;;;;5072296;28;20214;-74
2021/10/12 07:15:08;;;;;;;10.77;8.80;;;8.90;1.00;;;;;;5073021;28;20207;-78
2021/10/12 07:17:35;;;;;;;9.67;8.50;;;9.00;1.00;;;;;;5072432;28;20227;-79
2021/10/12 07:20:03;;;;;;;12.50;8.83;;;8.90;1.00;;;;;;5072598;28;20206;-78
2021/10/12 07:22:30;;;;;;;9.60;8.67;;;9.00;1.00;;;;;;5071982;28;20701;-78
2021/10/12 07:24:58;;;;;;;11.27;9.40;;;9.10;1.00;;;;;;5072803;28;20632;-77
2021/10/12 07:27:25;;;;;;;12.60;10.23;;;9.20;1.00;;;;;;5072770;28;20207;-76
2021/10/12 07:29:53;;;;;;;12.70;10.00;;;9.40;1.00;;;;;;5072547;28;20287;-77
2021/10/12 07:32:20;;;;;;;12.13;10.63;;;9.30;1.00;;;;;;5061414;28;20214;-74
2021/10/12 07:34:47;;;;;;;12.13;9.60;;;9.40;1.00;;;;;;5072002;28;20205;-74
2021/10/12 07:37:15;;;;;;;10.83;9.37;;;9.40;1.00;;;;;;5071681;28;20268;-73
2021/10/12 07:39:42;;;;;;;11.97;8.93;;;9.40;1.00;;;;;;5072113;28;20263;-72
2021/10/12 07:42:11;;;;;;;12.40;9.60;;;9.60;1.00;;;;;;5072204;28;20308;-74
2021/10/12 07:44:38;;;;;;;11.50;9.63;;;9.80;1.00;;;;;;5071886;28;20271;-77
2021/10/12 07:47:06;;;;;;;12.93;9.97;;;9.80;1.00;;;;;;5071743;28;20680;-77
2021/10/12 07:49:34;;;;;;;11.37;10.17;;;9.80;1.00;;;;;;5072004;28;20278;-77
2021/10/12 07:52:06;;;;;;;12.17;9.87;;;10.00;1.00;;;;;;5071582;28;20715;-80
2021/10/12 07:54:40;;;;;;;14.57;10.47;;;10.00;1.00;;;;;;5071871;28;20202;-80
2021/10/12 07:57:07;;;;;;;13.07;10.83;;;10.00;1.00;;;;;;5071641;28;20689;-81
2021/10/12 07:59:35;;;;;;;14.03;9.47;;;10.30;1.00;;;;;;5071767;28;20206;-83
2021/10/12 08:02:02;;;;;;;14.23;10.27;;;10.60;1.00;;;;;;5071621;28;20234;-80
2021/10/12 08:04:29;;;;;;;13.10;10.40;;;10.50;1.00;;;;;;5072040;28;20202;-80
2021/10/12 08:06:56;;;;;;;12.93;11.30;;;10.40;1.00;;;;;;5071665;28;20206;-81
2021/10/12 08:09:23;;;;;;;13.27;10.10;;;10.40;1.00;;;;;;5072047;28;20252;-81
2021/10/12 08:11:52;;;;;;;14.60;10.40;;;10.60;1.00;;;;;;5071297;28;20222;-80
2021/10/12 08:14:22;;;;;;;15.07;10.90;;;10.70;1.00;;;;;;5071332;28;20255;-80
2021/10/12 08:16:50;;;;;;;15.60;10.60;;;10.70;1.00;;;;;;5071271;28;20352;-79
2021/10/12 08:19:17;;;;;;;13.17;9.53;;;10.80;1.00;;;;;;5064312;28;20750;-75
2021/10/12 08:21:44;;;;;;;12.53;10.53;;;10.90;1.00;;;;;;5070808;28;20210;-75
2021/10/12 08:24:12;;;;;;;13.70;10.37;;;11.00;1.00;;;;;;5070744;28;20202;-74
2021/10/12 08:26:42;;;;;;;11.67;8.93;;;11.10;1.00;;;;;;5071039;28;20690;-75
2021/10/12 08:29:10;;;;;;;12.17;10.40;;;11.20;1.00;;;;;;5070938;28;20281;-78
2021/10/12 08:31:37;;;;;;;11.60;9.40;;;11.20;1.00;;;;;;5070940;28;20666;-75
2021/10/12 08:34:05;;;;;;;11.00;9.73;;;11.40;1.00;;;;;;5070698;28;20205;-73
2021/10/12 08:36:32;;;;;;;13.13;10.17;;;11.40;1.00;;;;;;5067679;28;20198;-78
2021/10/12 08:38:59;;;;;;;11.87;8.90;;;11.50;1.00;;;;;;5071105;28;20202;-77
2021/10/12 08:41:30;;;;;;;11.97;9.47;;;11.40;1.00;;;;;;5071372;28;20202;-77
2021/10/12 08:43:57;;;;;;;10.73;9.07;;;11.50;1.00;;;;;;5070392;28;20709;-77
2021/10/12 08:46:26;;;;;;;12.73;10.00;;;11.50;1.00;;;;;;5070891;28;20731;-78
2021/10/12 08:48:55;;;;;;;12.60;10.70;;;11.50;1.00;;;;;;5070288;28;20233;-77
2021/10/12 08:51:23;;;;;;;9.50;8.37;;;11.60;1.00;;;;;;5071402;28;20251;-79
2021/10/12 08:53:50;;;;;;;12.60;9.63;;;11.70;1.00;;;;;;5070740;28;20210;-79
2021/10/12 08:56:18;;;;;;;10.00;8.67;;;11.80;99.90;;;;;;5071182;28;20213;-79
2021/10/12 08:58:45;;;;;;;12.83;9.70;;;11.90;99.90;;;;;;5070636;28;20202;-78
2021/10/12 09:01:14;;;;;;;10.87;9.00;;;12.00;99.90;;;;;;5071117;28;20218;-78
2021/10/12 09:06:31;;;;;;;13.17;10.10;;;12.20;1.00;;;;;;5070651;28;20214;-78
2021/10/12 09:09:02;;;;;;;16.77;9.60;;;12.20;1.00;;;;;;5071112;28;20224;-77
2021/10/12 09:11:31;;;;;;;12.93;9.50;;;12.30;99.90;;;;;;5070417;28;20213;-76
2021/10/12 09:14:05;;;;;;;11.53;8.77;;;12.30;99.90;;;;;;5071007;28;20213;-77
2021/10/12 09:16:36;;;;;;;10.13;8.50;;;12.50;99.90;;;;;;5070858;28;20206;-78
2021/10/12 09:19:04;;;;;;;11.43;9.50;;;12.70;99.90;;;;;;5068278;28;20212;-76
2021/10/12 09:21:35;;;;;;;10.60;9.00;;;12.70;99.90;;;;;;5061938;28;20255;-78
2021/10/12 09:24:08;;;;;;;10.83;9.50;;;12.90;99.90;;;;;;5070227;28;20275;-78
2021/10/12 09:26:37;;;;;;;11.03;9.10;;;13.10;99.90;;;;;;5070693;28;20206;-78
2021/10/12 09:29:08;;;;;;;11.77;8.67;;;13.10;99.90;;;;;;5070724;28;20206;-78
2021/10/12 09:31:36;;;;;;;9.70;8.70;;;13.10;99.90;;;;;;5070457;28;20210;-77
2021/10/12 09:34:07;;;;;;;11.13;8.48;;;13.20;99.90;;;;;;5070226;28;20251;-78
2021/10/12 09:36:38;;;;;;;10.43;7.65;;;13.30;99.90;;;;;;5070048;28;20214;-78
2021/10/12 09:39:07;;;;;;;11.57;9.05;;;13.40;99.90;;;;;;5070713;28;20210;-78
2021/10/12 09:41:34;;;;;;;11.45;8.40;;;13.60;99.90;;;;;;5070030;28;20202;-76
2021/10/12 09:44:13;;;;;;;10.80;7.97;;;13.80;99.90;;;;;;5070459;28;20233;-77
2021/10/12 09:46:42;;;;;;;10.82;8.70;;;14.00;99.90;;;;;;5069830;28;20228;-78
2021/10/12 09:49:18;;;;;;;11.20;8.85;;;14.00;99.90;;;;;;5070088;28;20203;-77
2021/10/12 09:51:57;;;;;;;9.38;8.35;;;14.00;99.90;;;;;;5069744;28;20665;-77
2021/10/12 09:54:26;;;;;;;9.20;8.05;;;14.10;99.90;;;;;;5072249;28;20681;-77
2021/10/12 09:56:53;;;;;;;9.23;8.00;;;14.40;99.90;;;;;;5074112;28;20546;-78
2021/10/12 09:59:20;;;;;;;8.98;7.90;;;15.20;99.90;;;;;;5074509;28;20271;-79
2021/10/12 10:01:48;;;;;;;10.15;8.43;;;15.20;99.90;;;;;;5073200;28;20209;-74
2021/10/12 10:04:19;;;;;;;12.23;8.40;;;15.20;99.90;;;;;;5061478;28;20240;-80
2021/10/12 10:06:48;;;;;;;8.55;7.65;;;15.20;99.90;;;;;;5073897;28;20210;-81
2021/10/12 10:09:20;;;;;;;8.93;7.88;;;15.50;99.90;;;;;;5073643;28;20198;-80
2021/10/12 10:11:47;;;;;;;10.18;9.00;;;17.60;99.90;;;;;;5073493;28;20617;-79
2021/10/12 10:14:15;;;;;;;9.27;8.38;;;19.70;99.90;;;;;;5073702;28;20202;-79
2021/10/12 10:16:45;;;;;;;11.63;8.82;;;17.60;99.90;;;;;;5073713;28;20209;-80
2021/10/12 10:19:16;;;;;;;9.23;8.32;;;16.20;99.90;;;;;;5073830;28;20292;-77
2021/10/12 10:21:46;;;;;;;8.95;8.05;;;15.50;99.90;;;;;;5073407;28;20228;-78
2021/10/12 10:24:20;;;;;;;8.02;6.82;;;15.20;99.90;;;;;;5073407;28;20218;-77
2021/10/12 10:26:49;;;;;;;10.27;7.05;;;15.10;99.90;;;;;;5073323;28;20202;-80
2021/10/12 10:29:24;;;;;;;10.63;7.85;;;15.20;99.90;;;;;;5073501;28;20209;-78
2021/10/12 10:31:56;;;;;;;9.27;8.00;;;15.30;99.90;;;;;;5073126;28;20730;-78
2021/10/12 10:34:31;;;;;;;9.02;8.10;;;15.30;99.90;;;;;;5073419;28;20260;-78
2021/10/12 10:37:37;;;;;;;10.35;7.75;;;15.40;99.90;;;;;;5073635;28;20284;-79
2021/10/12 10:40:25;;;;;;;9.85;7.43;;;15.30;99.90;;;;;;5061200;28;20263;-78
2021/10/12 10:42:56;;;;;;;7.75;6.70;;;15.30;99.90;;;;;;5072881;28;20233;-79
2021/10/12 10:45:40;;;;;;;11.38;7.22;;;15.30;99.90;;;;;;5073216;28;20206;-80
2021/10/12 10:48:10;;;;;;;8.25;7.38;;;15.30;99.90;;;;;;5073204;28;20206;-78
2021/10/12 10:50:37;;;;;;;9.52;6.97;;;15.40;99.90;;;;;;5059250;28;20263;-80
2021/10/12 10:53:05;;;;;;;8.13;7.13;;;15.40;99.90;;;;;;5068517;28;20678;-79
2021/10/12 10:55:34;;;;;;;8.95;7.55;;;15.40;99.90;;;;;;5072595;28;20255;-78
2021/10/12 10:58:13;;;;;;;8.18;7.30;;;15.60;99.90;;;;;;5073133;28;20260;-78
2021/10/12 11:00:45;;;;;;;7.45;6.65;;;15.50;99.90;;;;;;5072311;28;20255;-77
2021/10/12 11:03:39;;;;;;;9.27;6.57;;;15.50;99.90;;;;;;5073017;28;20706;-77
2021/10/12 11:06:17;;;;;;;8.27;6.60;;;15.60;99.90;;;;;;5068753;28;20213;-77
2021/10/12 11:08:58;;;;;;;8.90;7.32;;;15.60;99.90;;;;;;5072299;28;20247;-78
2021/10/12 11:11:25;;;;;;;10.95;8.07;;;15.80;99.90;;;;;;5073324;28;20255;-78
2021/10/12 11:13:54;;;;;;;9.50;8.50;;;15.80;99.90;;;;;;5072306;28;20202;-79
2021/10/12 11:16:21;;;;;;;9.65;7.47;;;15.80;99.90;;;;;;5072652;28;20247;-80
2021/10/12 11:19:00;;;;;;;8.63;6.72;;;15.90;99.90;;;;;;5072595;28;20244;-78
2021/10/12 11:21:27;;;;;;;11.57;8.00;;;15.90;99.90;;;;;;5069657;28;20205;-79
2021/10/12 11:23:57;;;;;;;11.05;7.82;;;15.90;99.90;;;;;;5073079;28;20287;-78
2021/10/12 11:26:27;;;;;;;6.72;6.00;;;15.80;99.90;;;;;;5072677;28;20285;-78
2021/10/12 11:28:57;;;;;;;8.65;7.43;;;16.00;99.90;;;;;;5072035;28;20665;-78
2021/10/12 11:31:25;;;;;;;10.60;7.43;;;16.20;99.90;;;;;;5072850;28;20303;-74
2021/10/12 11:33:54;;;;;;;8.73;7.15;;;16.10;99.90;;;;;;5072204;28;20293;-74
2021/10/12 11:36:23;;;;;;;9.50;6.95;;;16.10;99.90;;;;;;5072230;28;20289;-74
2021/10/12 11:38:52;;;;;;;9.82;6.35;;;16.30;99.90;;;;;;5071928;28;20210;-73
2021/10/12 11:41:25;;;;;;;7.63;6.93;;;16.40;99.90;;;;;;5072195;28;20703;-72
2021/10/12 11:43:56;;;;;;;7.55;6.85;;;16.30;99.90;;;;;;5071549;28;20268;-72
2021/10/12 11:46:26;;;;;;;11.48;7.10;;;16.50;99.90;;;;;;5072404;28;20206;-72
2021/10/12 11:48:53;;;;;;;9.73;6.97;;;16.60;99.90;;;;;;5071970;28;20206;-74
2021/10/12 11:51:23;;;;;;;7.93;6.03;;;16.60;99.90;;;;;;5072249;28;20211;-75
2021/10/12 11:53:51;;;;;;;7.25;6.55;;;16.70;99.90;;;;;;5071940;28;20213;-75
2021/10/12 11:56:20;;;;;;;8.35;6.05;;;16.80;99.90;;;;;;5072462;28;20263;-79
2021/10/12 11:58:48;;;;;;;6.60;5.72;;;16.70;99.90;;;;;;5063656;28;20220;-78
2021/10/12 12:01:28;;;;;;;7.85;5.88;;;16.70;99.90;;;;;;5072021;28;20206;-77
2021/10/12 12:03:55;;;;;;;7.45;6.25;;;16.70;99.90;;;;;;5071438;28;20653;-76
2021/10/12 12:06:24;;;;;;;6.50;5.68;;;16.60;99.90;;;;;;5071768;28;20202;-79
2021/10/12 12:08:53;;;;;;;7.05;6.35;;;16.80;99.90;;;;;;5071382;28;20202;-79
2021/10/12 12:11:24;;;;;;;7.25;5.43;;;16.70;99.90;;;;;;5071944;28;20293;-78
2021/10/12 12:13:52;;;;;;;7.40;5.63;;;16.60;99.90;;;;;;5070985;28;20260;-77
2021/10/12 12:16:21;;;;;;;7.38;6.43;;;16.70;99.90;;;;;;5071971;28;20206;-77
2021/10/12 12:18:48;;;;;;;7.80;5.93;;;16.70;99.90;;;;;;5070145;28;20206;-77
2021/10/12 12:21:28;;;;;;;7.80;6.68;;;16.60;99.90;;;;;;5060489;28;20252;-77
2021/10/12 12:23:57;;;;;;;8.65;5.60;;;16.60;99.90;;;;;;5071532;28;20717;-78
2021/10/12 12:26:27;;;;;;;7.68;5.57;;;16.80;99.90;;;;;;5071481;28;20288;-78
2021/10/12 12:28:54;;;;;;;6.78;5.40;;;16.80;99.90;;;;;;5070743;28;20559;-77
2021/10/12 12:31:24;;;;;;;8.75;7.18;;;16.80;99.90;;;;;;5071105;28;20210;-78
2021/10/12 12:33:53;;;;;;;7.32;6.72;;;16.80;99.90;;;;;;5070840;28;20615;-77
2021/10/12 12:36:22;;;;;;;6.03;5.30;;;16.90;99.90;;;;;;5071295;28;20202;-78
2021/10/12 12:38:49;;;;;;;6.85;6.15;;;16.90;99.90;;;;;;5071214;28;20214;-77
2021/10/12 12:41:25;;;;;;;6.80;6.15;;;16.90;99.90;;;;;;5070774;28;20566;-78
2021/10/12 12:43:57;;;;;;;6.65;5.70;;;16.90;99.90;;;;;;5068251;28;20598;-78
2021/10/12 12:46:26;;;;;;;7.97;5.88;;;17.00;99.90;;;;;;5070348;28;20248;-76
2021/10/12 12:49:08;;;;;;;7.10;5.63;;;17.00;99.90;;;;;;5070728;28;20214;-77
2021/10/12 12:51:37;;;;;;;6.35;5.38;;;17.20;99.90;;;;;;5070710;28;20730;-78
2021/10/12 12:54:05;;;;;;;5.70;4.95;;;17.20;99.90;;;;;;5071151;28;20739;-76
2021/10/12 12:56:37;;;;;;;6.07;5.18;;;17.30;99.90;;;;;;5070255;28;20589;-77
2021/10/12 12:59:09;;;;;;;5.10;4.15;;;17.40;99.90;;;;;;5070790;28;20208;-77
2021/10/12 13:01:40;;;;;;;4.70;4.28;;;17.30;99.90;;;;;;5070696;28;20293;-78
2021/10/12 13:04:07;;;;;;;9.77;6.15;;;17.30;99.90;;;;;;5070605;28;20275;-75
2021/10/12 13:06:34;;;;;;;5.93;4.88;;;17.30;99.90;;;;;;5070528;28;20214;-76